sensor_id;sensor_type;location;lat;lon;timestamp;temperature;humidity
17797;DHT22;55596;53.554;9.916;2023-02-01T00:01:07;4.30;99.90
17797;DHT22;55596;53.554;9.916;2023-02-01T00:03:34;4.40;99.90
17797;DHT22;55596;53.554;9.916;2023-02-01T00:06:03;4.40;99.90
17797;DHT22;55596;53.554;9.916;2023-02-01T00:08:30;4.50;99.90
17797;DHT22;55596;53.554;9.916;2023-02-01T00:11:00;4.50;99.90
17797;DHT22;55596;53.554;9.916;2023-02-01T00:13:31;4.50;99.90
17797;DHT22;55596;53.554;9.916;2023-02-01T00:16:05;4.40;99.90
17797;DHT22;55596;53.554;9.916;2023-02-01T00:18:32;4.50;99.90
17797;DHT22;55596;53.554;9.916;2023-02-01T00:20:59;4.60;99.90
17797;DHT22;55596;53.554;9.916;2023-02-01T00:23:28;4.50;99.90
17797;DHT22;55596;53.554;9.916;2023-02-01T00:25:54;4.70;99.90
17797;DHT22;55596;53.554;9.916;2023-02-01T00:28:21;4.60;99.90
17797;DHT22;55596;53.554;9.916;2023-02-01T00:30:56;4.60;99.90
17797;DHT22;55596;53.554;9.916;2023-02-01T00:33:23;4.50;99.90
17797;DHT22;55596;53.554;9.916;2023-02-01T00:35:50;4.60;99.90
17797;DHT22;55596;53.554;9.916;2023-02-01T00:38:17;4.60;99.90
17797;DHT22;55596;53.554;9.916;2023-02-01T00:40:45;4.70;99.90
17797;DHT22;55596;53.554;9.916;2023-02-01T00:43:12;4.80;99.90
17797;DHT22;55596;53.554;9.916;2023-02-01T00:45:39;4.80;99.90
17797;DHT22;55596;53.554;9.916;2023-02-01T00:48:06;4.90;99.90
17797;DHT22;55596;53.554;9.916;2023-02-01T00:50:32;4.80;99.90
17797;DHT22;55596;53.554;9.916;2023-02-01T00:52:59;4.90;99.90
17797;DHT22;55596;53.554;9.916;2023-02-01T00:55:26;5.30;99.90
17797;DHT22;55596;53.554;9.916;2023-02-01T00:57:54;5.00;99.90
17797;DHT22;55596;53.554;9.916;2023-02-01T01:00:24;5.00;99.90
17797;DHT22;55596;53.554;9.916;2023-02-01T01:02:51;5.50;99.90
17797;DHT22;55596;53.554;9.916;2023-02-01T01:05:18;5.20;99.90
17797;DHT22;55596;53.554;9.916;2023-02-01T01:07:45;5.00;99.90
17797;DHT22;55596;53.554;9.916;2023-02-01T01:10:12;5.20;99.90
17797;DHT22;55596;53.554;9.916;2023-02-01T01:12:39;5.10;99.90
17797;DHT22;55596;53.554;9.916;2023-02-01T01:15:08;5.10;99.90
17797;DHT22;55596;53.554;9.916;2023-02-01T01:17:35;5.20;99.90
17797;DHT22;55596;53.554;9.916;2023-02-01T01:20:02;5.10;99.90
17797;DHT22;55596;53.554;9.916;2023-02-01T01:22:29;5.20;99.90
17797;DHT22;55596;53.554;9.916;2023-02-01T01:24:56;5.10;99.90
17797;DHT22;55596;53.554;9.916;2023-02-01T01:27:22;5.10;99.90
17797;DHT22;55596;53.554;9.916;2023-02-01T01:29:50;5.10;99.90
17797;DHT22;55596;53.554;9.916;2023-02-01T01:32:18;5.20;99.90
17797;DHT22;55596;53.554;9.916;2023-02-01T01:34:45;5.10;99.90
17797;DHT22;55596;53.554;9.916;2023-02-01T01:37:12;5.20;99.90
17797;DHT22;55596;53.554;9.916;2023-02-01T01:39:39;5.20;99.90
17797;DHT22;55596;53.554;9.916;2023-02-01T01:42:09;5.30;99.90
17797;DHT22;55596;53.554;9.916;2023-02-01T01:44:58;5.30;99.90
17797;DHT22;55596;53.554;9.916;2023-02-01T01:47:30;5.30;99.90
17797;DHT22;55596;53.554;9.916;2023-02-01T01:49:58;5.30;99.90
17797;DHT22;55596;53.554;9.916;2023-02-01T01:52:26;5.30;99.90
17797;DHT22;55596;53.554;9.916;2023-02-01T01:54:53;5.30;99.90
17797;DHT22;55596;53.554;9.916;2023-02-01T01:57:24;5.30;99.90
17797;DHT22;55596;53.554;9.916;2023-02-01T01:59:58;5.30;99.90
17797;DHT22;55596;53.554;9.916;2023-02-01T02:02:28;5.30;99.90
17797;DHT22;55596;53.554;9.916;2023-02-01T02:04:55;5.20;99.90
17797;DHT22;55596;53.554;9.916;2023-02-01T02:07:26;5.20;99.90
17797;DHT22;55596;53.554;9.916;2023-02-01T02:09:55;5.20;99.90
17797;DHT22;55596;53.554;9.916;2023-02-01T02:12:22;5.30;99.90
17797;DHT22;55596;53.554;9.916;2023-02-01T02:14:49;5.40;99.90
17797;DHT22;55596;53.554;9.916;2023-02-01T02:17:26;5.30;99.90
17797;DHT22;55596;53.554;9.916;2023-02-01T02:20:24;5.30;99.90
17797;DHT22;55596;53.554;9.916;2023-02-01T02:26:27;5.00;99.90
17797;DHT22;55596;53.554;9.916;2023-02-01T02:32:29;4.90;99.90
17797;DHT22;55596;53.554;9.916;2023-02-01T02:35:06;4.90;99.90
17797;DHT22;55596;53.554;9.916;2023-02-01T02:37:39;4.90;99.90
17797;DHT22;55596;53.554;9.916;2023-02-01T02:40:13;4.80;99.90
17797;DHT22;55596;53.554;9.916;2023-02-01T02:42:46;4.70;99.90
17797;DHT22;55596;53.554;9.916;2023-02-01T02:45:39;4.70;99.90
17797;DHT22;55596;53.554;9.916;2023-02-01T02:48:27;4.60;99.90
17797;DHT22;55596;53.554;9.916;2023-02-01T02:51:00;4.60;99.90
17797;DHT22;55596;53.554;9.916;2023-02-01T02:53:50;6.90;99.90
17797;DHT22;55596;53.554;9.916;2023-02-01T02:56:37;4.60;99.90
17797;DHT22;55596;53.554;9.916;2023-02-01T02:59:25;4.50;99.90
17797;DHT22;55596;53.554;9.916;2023-02-01T03:02:11;4.50;99.90
17797;DHT22;55596;53.554;9.916;2023-02-01T03:04:56;5.20;99.90
17797;DHT22;55596;53.554;9.916;2023-02-01T03:08:00;4.60;99.90
17797;DHT22;55596;53.554;9.916;2023-02-01T03:10:35;4.50;99.90
17797;DHT22;55596;53.554;9.916;2023-02-01T03:13:06;5.50;99.90
17797;DHT22;55596;53.554;9.916;2023-02-01T03:15:37;4.60;99.90
17797;DHT22;55596;53.554;9.916;2023-02-01T03:18:10;4.60;99.90
17797;DHT22;55596;53.554;9.916;2023-02-01T03:20:40;4.50;99.90
17797;DHT22;55596;53.554;9.916;2023-02-01T03:23:12;4.50;99.90
17797;DHT22;55596;53.554;9.916;2023-02-01T03:25:40;4.50;99.90
17797;DHT22;55596;53.554;9.916;2023-02-01T03:28:08;4.50;99.90
17797;DHT22;55596;53.554;9.916;2023-02-01T03:30:37;4.40;99.90
17797;DHT22;55596;53.554;9.916;2023-02-01T03:33:09;4.40;99.90
17797;DHT22;55596;53.554;9.916;2023-02-01T03:35:52;4.30;99.90
17797;DHT22;55596;53.554;9.916;2023-02-01T03:38:24;4.20;99.90
17797;DHT22;55596;53.554;9.916;2023-02-01T03:40:57;4.10;99.90
17797;DHT22;55596;53.554;9.916;2023-02-01T03:43:30;4.00;99.90
17797;DHT22;55596;53.554;9.916;2023-02-01T03:46:03;4.00;99.90
17797;DHT22;55596;53.554;9.916;2023-02-01T03:48:33;3.90;99.90
17797;DHT22;55596;53.554;9.916;2023-02-01T03:51:03;3.80;99.90
17797;DHT22;55596;53.554;9.916;2023-02-01T03:53:33;3.80;99.90
17797;DHT22;55596;53.554;9.916;2023-02-01T03:56:02;3.80;99.90
17797;DHT22;55596;53.554;9.916;2023-02-01T03:58:29;3.90;99.90
17797;DHT22;55596;53.554;9.916;2023-02-01T04:00:58;3.90;99.90
17797;DHT22;55596;53.554;9.916;2023-02-01T04:03:26;4.00;99.90
17797;DHT22;55596;53.554;9.916;2023-02-01T04:05:54;4.10;99.90
17797;DHT22;55596;53.554;9.916;2023-02-01T04:08:22;4.10;99.90
17797;DHT22;55596;53.554;9.916;2023-02-01T04:10:50;4.10;99.90
17797;DHT22;55596;53.554;9.916;2023-02-01T04:13:17;4.10;99.90
17797;DHT22;55596;53.554;9.916;2023-02-01T04:15:44;4.20;99.90
17797;DHT22;55596;53.554;9.916;2023-02-01T04:18:12;4.20;99.90
17797;DHT22;55596;53.554;9.916;2023-02-01T04:20:38;4.20;99.90
17797;DHT22;55596;53.554;9.916;2023-02-01T04:23:05;4.20;99.90
17797;DHT22;55596;53.554;9.916;2023-02-01T04:25:32;4.20;99.90
17797;DHT22;55596;53.554;9.916;2023-02-01T04:28:00;3.50;99.90
17797;DHT22;55596;53.554;9.916;2023-02-01T04:30:27;4.10;99.90
17797;DHT22;55596;53.554;9.916;2023-02-01T04:32:54;4.10;99.90
17797;DHT22;55596;53.554;9.916;2023-02-01T04:35:21;4.10;99.90
17797;DHT22;55596;53.554;9.916;2023-02-01T04:37:48;4.10;99.90
17797;DHT22;55596;53.554;9.916;2023-02-01T04:40:15;4.10;99.90
17797;DHT22;55596;53.554;9.916;2023-02-01T04:42:42;4.10;99.90
17797;DHT22;55596;53.554;9.916;2023-02-01T04:45:11;4.10;99.90
17797;DHT22;55596;53.554;9.916;2023-02-01T04:47:40;4.10;99.90
17797;DHT22;55596;53.554;9.916;2023-02-01T04:50:08;4.00;99.90
17797;DHT22;55596;53.554;9.916;2023-02-01T04:52:36;4.00;99.90
17797;DHT22;55596;53.554;9.916;2023-02-01T04:55:03;4.00;99.90
17797;DHT22;55596;53.554;9.916;2023-02-01T04:57:30;4.00;99.90
17797;DHT22;55596;53.554;9.916;2023-02-01T04:59:57;3.90;99.90
17797;DHT22;55596;53.554;9.916;2023-02-01T05:02:25;3.90;99.90
17797;DHT22;55596;53.554;9.916;2023-02-01T05:04:55;3.90;99.90
17797;DHT22;55596;53.554;9.916;2023-02-01T05:07:21;3.80;99.90
17797;DHT22;55596;53.554;9.916;2023-02-01T05:09:48;3.80;99.90
17797;DHT22;55596;53.554;9.916;2023-02-01T05:12:15;3.50;99.90
17797;DHT22;55596;53.554;9.916;2023-02-01T05:14:59;3.30;99.90
17797;DHT22;55596;53.554;9.916;2023-02-01T05:17:27;3.20;99.90
17797;DHT22;55596;53.554;9.916;2023-02-01T05:19:54;3.00;99.90
17797;DHT22;55596;53.554;9.916;2023-02-01T05:22:21;2.80;99.90
17797;DHT22;55596;53.554;9.916;2023-02-01T05:24:48;2.70;99.90
17797;DHT22;55596;53.554;9.916;2023-02-01T05:27:15;2.70;99.90
17797;DHT22;55596;53.554;9.916;2023-02-01T05:29:42;2.70;99.90
17797;DHT22;55596;53.554;9.916;2023-02-01T05:32:10;2.60;99.90
17797;DHT22;55596;53.554;9.916;2023-02-01T05:34:38;2.60;99.90
17797;DHT22;55596;53.554;9.916;2023-02-01T05:37:05;2.60;99.90
17797;DHT22;55596;53.554;9.916;2023-02-01T05:39:32;2.70;99.90
17797;DHT22;55596;53.554;9.916;2023-02-01T05:41:58;2.50;99.90
17797;DHT22;55596;53.554;9.916;2023-02-01T05:44:25;2.50;99.90
17797;DHT22;55596;53.554;9.916;2023-02-01T05:46:52;2.50;99.90
17797;DHT22;55596;53.554;9.916;2023-02-01T05:49:19;2.50;99.90
17797;DHT22;55596;53.554;9.916;2023-02-01T05:51:47;2.50;99.90
17797;DHT22;55596;53.554;9.916;2023-02-01T05:54:14;2.40;99.90
17797;DHT22;55596;53.554;9.916;2023-02-01T05:56:41;2.40;99.90
17797;DHT22;55596;53.554;9.916;2023-02-01T05:59:09;2.40;99.90
17797;DHT22;55596;53.554;9.916;2023-02-01T06:01:36;2.40;99.90
17797;DHT22;55596;53.554;9.916;2023-02-01T06:04:03;2.40;99.90
17797;DHT22;55596;53.554;9.916;2023-02-01T06:06:30;2.50;99.90
17797;DHT22;55596;53.554;9.916;2023-02-01T06:08:58;2.50;99.90
17797;DHT22;55596;53.554;9.916;2023-02-01T06:11:25;2.50;99.90
17797;DHT22;55596;53.554;9.916;2023-02-01T06:13:53;2.50;99.90
17797;DHT22;55596;53.554;9.916;2023-02-01T06:16:21;2.50;99.90
17797;DHT22;55596;53.554;9.916;2023-02-01T06:18:48;2.50;99.90
17797;DHT22;55596;53.554;9.916;2023-02-01T06:21:15;2.60;99.90
17797;DHT22;55596;53.554;9.916;2023-02-01T06:23:49;2.80;99.90
17797;DHT22;55596;53.554;9.916;2023-02-01T06:26:17;2.70;99.90
17797;DHT22;55596;53.554;9.916;2023-02-01T06:28:44;2.90;99.90
17797;DHT22;55596;53.554;9.916;2023-02-01T06:31:11;2.70;99.90
17797;DHT22;55596;53.554;9.916;2023-02-01T06:33:39;2.70;99.90
17797;DHT22;55596;53.554;9.916;2023-02-01T06:36:07;2.80;99.90
17797;DHT22;55596;53.554;9.916;2023-02-01T06:38:36;2.80;99.90
17797;DHT22;55596;53.554;9.916;2023-02-01T06:41:04;2.90;99.90
17797;DHT22;55596;53.554;9.916;2023-02-01T06:43:33;3.00;99.90
17797;DHT22;55596;53.554;9.916;2023-02-01T06:46:00;4.20;99.90
17797;DHT22;55596;53.554;9.916;2023-02-01T06:48:27;3.10;99.90
17797;DHT22;55596;53.554;9.916;2023-02-01T06:50:54;3.10;99.90
17797;DHT22;55596;53.554;9.916;2023-02-01T06:53:22;3.10;99.90
17797;DHT22;55596;53.554;9.916;2023-02-01T06:55:52;3.10;99.90
17797;DHT22;55596;53.554;9.916;2023-02-01T06:58:19;3.00;99.90
17797;DHT22;55596;53.554;9.916;2023-02-01T07:00:48;3.10;99.90
17797;DHT22;55596;53.554;9.916;2023-02-01T07:03:15;3.20;99.90
17797;DHT22;55596;53.554;9.916;2023-02-01T07:05:41;3.30;99.90
17797;DHT22;55596;53.554;9.916;2023-02-01T07:08:08;3.30;99.90
17797;DHT22;55596;53.554;9.916;2023-02-01T07:10:37;3.40;99.90
17797;DHT22;55596;53.554;9.916;2023-02-01T07:13:05;3.40;99.90
17797;DHT22;55596;53.554;9.916;2023-02-01T07:15:32;3.40;99.90
17797;DHT22;55596;53.554;9.916;2023-02-01T07:18:00;3.50;99.90
17797;DHT22;55596;53.554;9.916;2023-02-01T07:20:27;3.50;99.90
17797;DHT22;55596;53.554;9.916;2023-02-01T07:22:57;3.50;99.90
17797;DHT22;55596;53.554;9.916;2023-02-01T07:25:24;3.60;99.90
17797;DHT22;55596;53.554;9.916;2023-02-01T07:27:51;3.70;99.90
17797;DHT22;55596;53.554;9.916;2023-02-01T07:30:18;3.80;99.90
17797;DHT22;55596;53.554;9.916;2023-02-01T07:32:45;3.80;99.90
17797;DHT22;55596;53.554;9.916;2023-02-01T07:35:13;4.20;99.90
17797;DHT22;55596;53.554;9.916;2023-02-01T07:37:40;4.00;99.90
17797;DHT22;55596;53.554;9.916;2023-02-01T07:40:08;4.00;99.90
17797;DHT22;55596;53.554;9.916;2023-02-01T07:42:35;4.00;99.90
17797;DHT22;55596;53.554;9.916;2023-02-01T07:45:02;4.10;99.90
17797;DHT22;55596;53.554;9.916;2023-02-01T07:47:29;4.10;99.90
17797;DHT22;55596;53.554;9.916;2023-02-01T07:49:56;4.20;99.90
17797;DHT22;55596;53.554;9.916;2023-02-01T07:52:27;4.20;99.90
17797;DHT22;55596;53.554;9.916;2023-02-01T07:54:54;4.20;99.90
17797;DHT22;55596;53.554;9.916;2023-02-01T07:57:21;4.70;99.90
17797;DHT22;55596;53.554;9.916;2023-02-01T07:59:47;4.40;99.90
17797;DHT22;55596;53.554;9.916;2023-02-01T08:02:32;4.40;99.90
17797;DHT22;55596;53.554;9.916;2023-02-01T08:04:58;4.40;99.90
17797;DHT22;55596;53.554;9.916;2023-02-01T08:07:27;4.40;99.90
17797;DHT22;55596;53.554;9.916;2023-02-01T08:09:53;4.40;99.90
17797;DHT22;55596;53.554;9.916;2023-02-01T08:12:20;4.40;99.90
17797;DHT22;55596;53.554;9.916;2023-02-01T08:14:47;4.40;99.90
17797;DHT22;55596;53.554;9.916;2023-02-01T08:17:14;4.40;99.90
17797;DHT22;55596;53.554;9.916;2023-02-01T08:19:40;4.40;99.90
17797;DHT22;55596;53.554;9.916;2023-02-01T08:22:07;4.50;99.90
17797;DHT22;55596;53.554;9.916;2023-02-01T08:24:35;4.60;99.90
17797;DHT22;55596;53.554;9.916;2023-02-01T08:27:05;4.70;99.90
17797;DHT22;55596;53.554;9.916;2023-02-01T08:29:32;4.80;99.90
17797;DHT22;55596;53.554;9.916;2023-02-01T08:31:59;5.00;99.90
17797;DHT22;55596;53.554;9.916;2023-02-01T08:34:25;5.10;99.90
17797;DHT22;55596;53.554;9.916;2023-02-01T08:36:52;5.20;99.90
17797;DHT22;55596;53.554;9.916;2023-02-01T08:39:23;5.20;99.90
17797;DHT22;55596;53.554;9.916;2023-02-01T08:41:52;5.10;99.90
17797;DHT22;55596;53.554;9.916;2023-02-01T08:44:33;5.10;99.90
17797;DHT22;55596;53.554;9.916;2023-02-01T08:46:59;4.90;99.90
17797;DHT22;55596;53.554;9.916;2023-02-01T08:49:26;4.90;99.90
17797;DHT22;55596;53.554;9.916;2023-02-01T08:51:53;4.90;99.90
17797;DHT22;55596;53.554;9.916;2023-02-01T08:54:21;5.00;99.90
17797;DHT22;55596;53.554;9.916;2023-02-01T08:56:48;4.90;99.90
17797;DHT22;55596;53.554;9.916;2023-02-01T08:59:16;4.90;99.90
17797;DHT22;55596;53.554;9.916;2023-02-01T09:01:43;4.90;99.90
17797;DHT22;55596;53.554;9.916;2023-02-01T09:04:09;4.90;99.90
17797;DHT22;55596;53.554;9.916;2023-02-01T09:06:36;5.10;99.90
17797;DHT22;55596;53.554;9.916;2023-02-01T09:09:06;5.20;99.90
17797;DHT22;55596;53.554;9.916;2023-02-01T09:11:34;5.20;99.90
17797;DHT22;55596;53.554;9.916;2023-02-01T09:14:00;5.40;99.90
17797;DHT22;55596;53.554;9.916;2023-02-01T09:16:29;7.20;99.90
17797;DHT22;55596;53.554;9.916;2023-02-01T09:18:56;5.20;99.90
17797;DHT22;55596;53.554;9.916;2023-02-01T09:21:23;5.30;99.90
17797;DHT22;55596;53.554;9.916;2023-02-01T09:23:50;6.90;99.90
17797;DHT22;55596;53.554;9.916;2023-02-01T09:26:17;7.20;99.90
17797;DHT22;55596;53.554;9.916;2023-02-01T09:28:44;5.20;99.90
17797;DHT22;55596;53.554;9.916;2023-02-01T09:31:11;5.10;99.90
17797;DHT22;55596;53.554;9.916;2023-02-01T09:33:39;5.10;99.90
17797;DHT22;55596;53.554;9.916;2023-02-01T09:36:07;5.10;99.90
17797;DHT22;55596;53.554;9.916;2023-02-01T09:38:34;5.20;99.90
17797;DHT22;55596;53.554;9.916;2023-02-01T09:41:01;5.20;99.90
17797;DHT22;55596;53.554;9.916;2023-02-01T09:43:40;5.20;99.90
17797;DHT22;55596;53.554;9.916;2023-02-01T09:46:19;5.20;99.90
17797;DHT22;55596;53.554;9.916;2023-02-01T09:48:51;5.30;99.90
17797;DHT22;55596;53.554;9.916;2023-02-01T09:51:22;5.40;99.90
17797;DHT22;55596;53.554;9.916;2023-02-01T09:53:58;5.50;99.90
17797;DHT22;55596;53.554;9.916;2023-02-01T09:56:35;5.50;99.90
17797;DHT22;55596;53.554;9.916;2023-02-01T09:59:09;5.60;99.90
17797;DHT22;55596;53.554;9.916;2023-02-01T10:01:37;5.60;99.90
17797;DHT22;55596;53.554;9.916;2023-02-01T10:04:08;5.70;99.90
17797;DHT22;55596;53.554;9.916;2023-02-01T10:06:50;5.70;99.90
17797;DHT22;55596;53.554;9.916;2023-02-01T10:09:27;5.80;99.90
17797;DHT22;55596;53.554;9.916;2023-02-01T10:12:27;5.80;99.90
17797;DHT22;55596;53.554;9.916;2023-02-01T10:14:59;5.70;99.90
17797;DHT22;55596;53.554;9.916;2023-02-01T10:17:43;5.80;99.90
17797;DHT22;55596;53.554;9.916;2023-02-01T10:20:18;5.80;99.90
17797;DHT22;55596;53.554;9.916;2023-02-01T10:22:54;5.70;99.90
17797;DHT22;55596;53.554;9.916;2023-02-01T10:25:26;5.60;99.90
17797;DHT22;55596;53.554;9.916;2023-02-01T10:27:56;5.70;99.90
17797;DHT22;55596;53.554;9.916;2023-02-01T10:30:27;5.50;99.90
17797;DHT22;55596;53.554;9.916;2023-02-01T10:32:57;5.40;99.90
17797;DHT22;55596;53.554;9.916;2023-02-01T10:35:31;5.40;99.90
17797;DHT22;55596;53.554;9.916;2023-02-01T10:38:02;5.30;99.90
17797;DHT22;55596;53.554;9.916;2023-02-01T10:40:29;5.30;99.90
17797;DHT22;55596;53.554;9.916;2023-02-01T10:42:58;5.30;99.90
17797;DHT22;55596;53.554;9.916;2023-02-01T10:45:29;5.20;99.90
17797;DHT22;55596;53.554;9.916;2023-02-01T10:47:59;5.30;99.90
17797;DHT22;55596;53.554;9.916;2023-02-01T10:50:34;5.30;99.90
17797;DHT22;55596;53.554;9.916;2023-02-01T10:53:06;5.20;99.90
17797;DHT22;55596;53.554;9.916;2023-02-01T10:55:39;5.20;99.90
17797;DHT22;55596;53.554;9.916;2023-02-01T10:58:07;5.20;99.90
17797;DHT22;55596;53.554;9.916;2023-02-01T11:00:46;5.10;99.90
17797;DHT22;55596;53.554;9.916;2023-02-01T11:03:30;5.10;99.90
17797;DHT22;55596;53.554;9.916;2023-02-01T11:06:00;5.10;99.90
17797;DHT22;55596;53.554;9.916;2023-02-01T11:08:27;5.10;99.90
17797;DHT22;55596;53.554;9.916;2023-02-01T11:10:59;5.20;99.90
17797;DHT22;55596;53.554;9.916;2023-02-01T11:13:31;5.20;99.90
17797;DHT22;55596;53.554;9.916;2023-02-01T11:16:02;5.30;99.90
17797;DHT22;55596;53.554;9.916;2023-02-01T11:18:31;5.50;99.90
17797;DHT22;55596;53.554;9.916;2023-02-01T11:21:00;5.50;99.90
17797;DHT22;55596;53.554;9.916;2023-02-01T11:23:28;5.50;99.90
17797;DHT22;55596;53.554;9.916;2023-02-01T11:25:57;5.50;99.90
17797;DHT22;55596;53.554;9.916;2023-02-01T11:28:26;5.50;99.90
17797;DHT22;55596;53.554;9.916;2023-02-01T11:30:58;5.60;99.90
17797;DHT22;55596;53.554;9.916;2023-02-01T11:33:30;5.60;99.90
17797;DHT22;55596;53.554;9.916;2023-02-01T11:36:05;5.70;99.90
17797;DHT22;55596;53.554;9.916;2023-02-01T11:38:34;5.70;99.90
17797;DHT22;55596;53.554;9.916;2023-02-01T11:41:12;5.60;99.90
17797;DHT22;55596;53.554;9.916;2023-02-01T11:43:55;5.50;99.90
17797;DHT22;55596;53.554;9.916;2023-02-01T11:46:26;6.60;99.90
17797;DHT22;55596;53.554;9.916;2023-02-01T11:48:54;5.40;99.90
17797;DHT22;55596;53.554;9.916;2023-02-01T11:51:34;5.40;99.90
17797;DHT22;55596;53.554;9.916;2023-02-01T11:54:22;6.70;99.90
17797;DHT22;55596;53.554;9.916;2023-02-01T11:57:02;5.30;99.90
17797;DHT22;55596;53.554;9.916;2023-02-01T11:59:58;5.10;99.90
17797;DHT22;55596;53.554;9.916;2023-02-01T12:02:55;5.00;99.90
17797;DHT22;55596;53.554;9.916;2023-02-01T12:05:31;4.90;99.90
17797;DHT22;55596;53.554;9.916;2023-02-01T12:08:19;4.90;99.90
17797;DHT22;55596;53.554;9.916;2023-02-01T12:11:00;4.90;99.90
17797;DHT22;55596;53.554;9.916;2023-02-01T12:13:41;4.80;99.90
17797;DHT22;55596;53.554;9.916;2023-02-01T12:16:19;4.80;99.90
17797;DHT22;55596;53.554;9.916;2023-02-01T12:19:05;4.80;99.90
17797;DHT22;55596;53.554;9.916;2023-02-01T12:21:48;4.30;99.90
17797;DHT22;55596;53.554;9.916;2023-02-01T12:24:48;4.80;99.90
17797;DHT22;55596;53.554;9.916;2023-02-01T12:27:42;4.70;99.90
17797;DHT22;55596;53.554;9.916;2023-02-01T12:33:09;4.60;99.90
17797;DHT22;55596;53.554;9.916;2023-02-01T12:35:46;4.40;99.90
17797;DHT22;55596;53.554;9.916;2023-02-01T12:38:29;4.30;99.90
17797;DHT22;55596;53.554;9.916;2023-02-01T12:41:15;4.20;99.90
17797;DHT22;55596;53.554;9.916;2023-02-01T12:43:49;4.20;99.90
17797;DHT22;55596;53.554;9.916;2023-02-01T12:46:23;4.00;99.90
17797;DHT22;55596;53.554;9.916;2023-02-01T12:48:57;4.00;99.90
17797;DHT22;55596;53.554;9.916;2023-02-01T12:51:28;3.90;99.90
17797;DHT22;55596;53.554;9.916;2023-02-01T12:54:00;3.80;99.90
17797;DHT22;55596;53.554;9.916;2023-02-01T12:56:32;3.80;99.90
17797;DHT22;55596;53.554;9.916;2023-02-01T12:59:07;3.80;99.90
17797;DHT22;55596;53.554;9.916;2023-02-01T13:01:41;3.70;99.90
17797;DHT22;55596;53.554;9.916;2023-02-01T13:04:15;3.40;99.90
17797;DHT22;55596;53.554;9.916;2023-02-01T13:06:46;3.70;99.90
17797;DHT22;55596;53.554;9.916;2023-02-01T13:09:20;3.70;99.90
17797;DHT22;55596;53.554;9.916;2023-02-01T13:11:53;3.70;99.90
17797;DHT22;55596;53.554;9.916;2023-02-01T13:14:28;3.70;99.90
17797;DHT22;55596;53.554;9.916;2023-02-01T13:17:01;3.70;99.90
17797;DHT22;55596;53.554;9.916;2023-02-01T13:19:33;3.90;99.90
17797;DHT22;55596;53.554;9.916;2023-02-01T13:22:06;4.00;99.90
17797;DHT22;55596;53.554;9.916;2023-02-01T13:24:40;4.10;99.90
17797;DHT22;55596;53.554;9.916;2023-02-01T13:27:14;4.50;99.90
17797;DHT22;55596;53.554;9.916;2023-02-01T13:29:47;4.60;99.90
17797;DHT22;55596;53.554;9.916;2023-02-01T13:35:32;4.90;99.90
17797;DHT22;55596;53.554;9.916;2023-02-01T13:38:32;4.60;99.90
17797;DHT22;55596;53.554;9.916;2023-02-01T13:41:14;4.60;99.90
17797;DHT22;55596;53.554;9.916;2023-02-01T13:43:48;4.50;99.90
17797;DHT22;55596;53.554;9.916;2023-02-01T13:46:15;4.50;99.90
17797;DHT22;55596;53.554;9.916;2023-02-01T13:48:47;4.50;99.90
17797;DHT22;55596;53.554;9.916;2023-02-01T13:51:18;4.40;99.90
17797;DHT22;55596;53.554;9.916;2023-02-01T13:53:56;4.50;99.90
17797;DHT22;55596;53.554;9.916;2023-02-01T13:56:24;4.40;99.90
17797;DHT22;55596;53.554;9.916;2023-02-01T13:58:53;4.50;99.90
17797;DHT22;55596;53.554;9.916;2023-02-01T14:01:44;4.50;99.90
17797;DHT22;55596;53.554;9.916;2023-02-01T14:04:48;4.60;99.90
17797;DHT22;55596;53.554;9.916;2023-02-01T14:07:20;4.70;99.90
17797;DHT22;55596;53.554;9.916;2023-02-01T14:09:48;4.80;99.90
17797;DHT22;55596;53.554;9.916;2023-02-01T14:12:43;5.10;99.90
17797;DHT22;55596;53.554;9.916;2023-02-01T14:15:23;5.40;99.90
17797;DHT22;55596;53.554;9.916;2023-02-01T14:17:51;5.50;99.90
17797;DHT22;55596;53.554;9.916;2023-02-01T14:20:46;5.50;99.90
17797;DHT22;55596;53.554;9.916;2023-02-01T14:23:24;5.40;99.90
17797;DHT22;55596;53.554;9.916;2023-02-01T14:28:59;5.10;99.90
17797;DHT22;55596;53.554;9.916;2023-02-01T14:31:40;5.10;99.90
17797;DHT22;55596;53.554;9.916;2023-02-01T14:34:16;5.00;99.90
17797;DHT22;55596;53.554;9.916;2023-02-01T14:36:47;4.70;99.90
17797;DHT22;55596;53.554;9.916;2023-02-01T14:39:33;4.70;99.90
17797;DHT22;55596;53.554;9.916;2023-02-01T14:42:13;4.40;99.90
17797;DHT22;55596;53.554;9.916;2023-02-01T14:44:41;4.10;99.90
17797;DHT22;55596;53.554;9.916;2023-02-01T14:50:26;3.70;99.90
17797;DHT22;55596;53.554;9.916;2023-02-01T14:53:18;3.70;99.90
17797;DHT22;55596;53.554;9.916;2023-02-01T14:55:49;3.70;99.90
17797;DHT22;55596;53.554;9.916;2023-02-01T14:58:25;3.70;99.90
17797;DHT22;55596;53.554;9.916;2023-02-01T15:00:56;3.70;99.90
17797;DHT22;55596;53.554;9.916;2023-02-01T15:03:41;3.70;99.90
17797;DHT22;55596;53.554;9.916;2023-02-01T15:06:23;3.80;99.90
17797;DHT22;55596;53.554;9.916;2023-02-01T15:08:53;3.80;99.90
17797;DHT22;55596;53.554;9.916;2023-02-01T15:11:21;3.80;99.90
17797;DHT22;55596;53.554;9.916;2023-02-01T15:13:49;4.00;99.90
17797;DHT22;55596;53.554;9.916;2023-02-01T15:16:19;3.90;99.90
17797;DHT22;55596;53.554;9.916;2023-02-01T15:18:48;3.90;99.90
17797;DHT22;55596;53.554;9.916;2023-02-01T15:21:18;3.90;99.90
17797;DHT22;55596;53.554;9.916;2023-02-01T15:23:45;3.90;99.90
17797;DHT22;55596;53.554;9.916;2023-02-01T15:26:25;3.80;99.90
17797;DHT22;55596;53.554;9.916;2023-02-01T15:28:52;3.60;99.90
17797;DHT22;55596;53.554;9.916;2023-02-01T15:31:32;3.60;99.90
17797;DHT22;55596;53.554;9.916;2023-02-01T15:33:59;3.50;99.90
17797;DHT22;55596;53.554;9.916;2023-02-01T15:36:27;3.50;99.90
17797;DHT22;55596;53.554;9.916;2023-02-01T15:39:23;3.40;99.90
17797;DHT22;55596;53.554;9.916;2023-02-01T15:41:53;3.40;99.90
17797;DHT22;55596;53.554;9.916;2023-02-01T15:44:29;3.30;99.90
17797;DHT22;55596;53.554;9.916;2023-02-01T15:46:58;3.40;99.90
17797;DHT22;55596;53.554;9.916;2023-02-01T15:49:27;3.50;99.90
17797;DHT22;55596;53.554;9.916;2023-02-01T15:51:57;3.50;99.90
17797;DHT22;55596;53.554;9.916;2023-02-01T15:54:29;3.60;99.90
17797;DHT22;55596;53.554;9.916;2023-02-01T15:57:02;3.60;99.90
17797;DHT22;55596;53.554;9.916;2023-02-01T15:59:33;3.60;99.90
17797;DHT22;55596;53.554;9.916;2023-02-01T16:02:02;3.70;99.90
17797;DHT22;55596;53.554;9.916;2023-02-01T16:04:30;3.60;99.90
17797;DHT22;55596;53.554;9.916;2023-02-01T16:07:01;3.60;99.90
17797;DHT22;55596;53.554;9.916;2023-02-01T16:09:52;3.60;99.90
17797;DHT22;55596;53.554;9.916;2023-02-01T16:12:26;3.60;99.90
17797;DHT22;55596;53.554;9.916;2023-02-01T16:14:54;3.60;99.90
17797;DHT22;55596;53.554;9.916;2023-02-01T16:17:21;3.60;99.90
17797;DHT22;55596;53.554;9.916;2023-02-01T16:19:48;3.70;99.90
17797;DHT22;55596;53.554;9.916;2023-02-01T16:22:16;3.60;99.90
17797;DHT22;55596;53.554;9.916;2023-02-01T16:24:43;3.70;99.90
17797;DHT22;55596;53.554;9.916;2023-02-01T16:27:10;3.70;99.90
17797;DHT22;55596;53.554;9.916;2023-02-01T16:29:37;3.60;99.90
17797;DHT22;55596;53.554;9.916;2023-02-01T16:32:04;3.70;99.90